Kylertown, PA (16847)

2:03 PM EDT on July 24, 2016 (GMT -0400)
South Philipsburg | | Change Station

Elev 1444 ft 40.89 °N, 78.22 °W | Updated 47 seconds ago

Clear
Clear
90.6 °F
Feels Like 92 °F
N
1.0
Wind Variable Wind from NW
Gusts 1.0 mph

Today
High -- | Low -- °F
--% Chance of Precip.
Yesterday
High -- | Low -- °F
Precip. -- in
Pressure 29.99 in
Visibility 10.0 miles
Clouds Clear
Heat Index 92 °F
Dew Point 64 °F
Humidity 41%
Rainfall 0.00 in
Snow Depth Not available.
6:01 AM 8:36 PM
Waning Gibbous, 74% visible
METAR KFIG 241754Z AUTO 26007KT 10SM CLR 34/12 A3002 RMK AO2 SLP153 T03440117 10350 20183 58013
Pressure 29.99 in
Visibility 10.0 miles
Clouds Clear
Heat Index 92 °F
Dew Point 64 °F
Humidity 41%
Rainfall 0.00 in
Snow Depth Not available.
6:01 AM 8:36 PM
Waning Gibbous, 74% visible
METAR KFIG 241754Z AUTO 26007KT 10SM CLR 34/12 A3002 RMK AO2 SLP153 T03440117 10350 20183 58013

10-Day Weather Forecast

Almanac

Astronomy

Jul. 24, 2016 Rise Set
Actual Time
Civil Twilight
Nautical Twilight
Astronomical Twilight
Moon
Length of Visible Light
Length of Day
Tomorrow will be .
, % of the Moon is Illuminated

Today's Extremes

State Highs State Lows

Community

WunderPhotos

Upload Photos

1,927,142 photos uploaded!

WunderBlog® & News

Nearby

Air Quality

  Air Quality AQ Index Pollutant
Not available.

Snow Depth

Station Depth Elevation

Earthquake Activity

City Distance Mag. Time & Date
Minimum magnitude displayed is 2.5.

Coastal Water Temperatures

Place Temperature

Stations

Nearby Weather Stations

Station Location Temp. Windchill Dew Point Humidity Wind Precip. Elev Updated Type
                   

Watches & Warnings

There are currently no watches in effect.